sensor_id;sensor_type;location;lat;lon;timestamp;P1;durP1;ratioP1;P2;durP2;ratioP2
32297;SDS011;18782;48.984;8.548;2024-02-21T00:02:27;14.52;;;7.03;;
32297;SDS011;18782;48.984;8.548;2024-02-21T00:04:55;12.95;;;6.03;;
32297;SDS011;18782;48.984;8.548;2024-02-21T00:07:22;12.13;;;6.20;;
32297;SDS011;18782;48.984;8.548;2024-02-21T00:09:50;14.02;;;6.18;;
32297;SDS011;18782;48.984;8.548;2024-02-21T00:12:18;15.15;;;6.35;;
32297;SDS011;18782;48.984;8.548;2024-02-21T00:14:45;13.23;;;5.82;;
32297;SDS011;18782;48.984;8.548;2024-02-21T00:17:13;14.13;;;6.07;;
32297;SDS011;18782;48.984;8.548;2024-02-21T00:19:42;13.77;;;6.25;;
32297;SDS011;18782;48.984;8.548;2024-02-21T00:22:10;17.27;;;5.53;;
32297;SDS011;18782;48.984;8.548;2024-02-21T00:24:38;13.85;;;5.53;;
32297;SDS011;18782;48.984;8.548;2024-02-21T00:27:06;12.55;;;4.72;;
32297;SDS011;18782;48.984;8.548;2024-02-21T00:29:33;14.70;;;4.88;;
32297;SDS011;18782;48.984;8.548;2024-02-21T00:32:01;11.82;;;3.08;;
32297;SDS011;18782;48.984;8.548;2024-02-21T00:34:29;12.55;;;4.80;;
32297;SDS011;18782;48.984;8.548;2024-02-21T00:36:58;10.77;;;2.88;;
32297;SDS011;18782;48.984;8.548;2024-02-21T00:39:26;9.27;;;2.38;;
32297;SDS011;18782;48.984;8.548;2024-02-21T00:41:53;8.40;;;2.03;;
32297;SDS011;18782;48.984;8.548;2024-02-21T00:44:21;8.55;;;2.83;;
32297;SDS011;18782;48.984;8.548;2024-02-21T00:46:49;9.65;;;3.40;;
32297;SDS011;18782;48.984;8.548;2024-02-21T00:49:17;9.63;;;2.90;;
32297;SDS011;18782;48.984;8.548;2024-02-21T00:51:44;9.60;;;2.20;;
32297;SDS011;18782;48.984;8.548;2024-02-21T00:54:13;7.55;;;2.05;;
32297;SDS011;18782;48.984;8.548;2024-02-21T00:56:42;10.27;;;2.30;;
32297;SDS011;18782;48.984;8.548;2024-02-21T00:59:10;7.63;;;1.70;;
32297;SDS011;18782;48.984;8.548;2024-02-21T01:01:37;8.13;;;1.73;;
32297;SDS011;18782;48.984;8.548;2024-02-21T01:04:08;8.18;;;2.20;;
32297;SDS011;18782;48.984;8.548;2024-02-21T01:06:36;6.93;;;2.25;;
32297;SDS011;18782;48.984;8.548;2024-02-21T01:09:04;10.70;;;2.03;;
32297;SDS011;18782;48.984;8.548;2024-02-21T01:11:33;11.75;;;2.38;;
32297;SDS011;18782;48.984;8.548;2024-02-21T01:14:01;7.53;;;1.70;;
32297;SDS011;18782;48.984;8.548;2024-02-21T01:16:28;7.90;;;1.90;;
32297;SDS011;18782;48.984;8.548;2024-02-21T01:18:56;7.68;;;1.63;;
32297;SDS011;18782;48.984;8.548;2024-02-21T01:21:24;8.50;;;2.40;;
32297;SDS011;18782;48.984;8.548;2024-02-21T01:23:51;8.70;;;1.70;;
32297;SDS011;18782;48.984;8.548;2024-02-21T01:26:19;7.30;;;1.58;;
32297;SDS011;18782;48.984;8.548;2024-02-21T01:28:48;12.10;;;2.30;;
32297;SDS011;18782;48.984;8.548;2024-02-21T01:31:15;8.90;;;2.20;;
32297;SDS011;18782;48.984;8.548;2024-02-21T01:33:44;6.82;;;1.73;;
32297;SDS011;18782;48.984;8.548;2024-02-21T01:36:11;5.38;;;1.60;;
32297;SDS011;18782;48.984;8.548;2024-02-21T01:38:39;6.93;;;1.55;;
32297;SDS011;18782;48.984;8.548;2024-02-21T01:41:06;9.88;;;2.17;;
32297;SDS011;18782;48.984;8.548;2024-02-21T01:43:34;7.20;;;1.38;;
32297;SDS011;18782;48.984;8.548;2024-02-21T01:46:04;7.78;;;2.35;;
32297;SDS011;18782;48.984;8.548;2024-02-21T01:48:31;7.80;;;1.80;;
32297;SDS011;18782;48.984;8.548;2024-02-21T01:50:59;6.90;;;2.10;;
32297;SDS011;18782;48.984;8.548;2024-02-21T01:53:29;5.93;;;2.20;;
32297;SDS011;18782;48.984;8.548;2024-02-21T01:55:58;7.22;;;2.25;;
32297;SDS011;18782;48.984;8.548;2024-02-21T01:58:26;9.77;;;1.73;;
32297;SDS011;18782;48.984;8.548;2024-02-21T02:00:56;8.23;;;1.88;;
32297;SDS011;18782;48.984;8.548;2024-02-21T02:03:25;8.38;;;1.52;;
32297;SDS011;18782;48.984;8.548;2024-02-21T02:05:54;7.03;;;1.70;;
32297;SDS011;18782;48.984;8.548;2024-02-21T02:08:22;7.47;;;1.50;;
32297;SDS011;18782;48.984;8.548;2024-02-21T02:10:50;7.07;;;1.65;;
32297;SDS011;18782;48.984;8.548;2024-02-21T02:13:19;4.57;;;1.60;;
32297;SDS011;18782;48.984;8.548;2024-02-21T02:15:47;7.15;;;1.77;;
32297;SDS011;18782;48.984;8.548;2024-02-21T02:18:16;6.18;;;1.83;;
32297;SDS011;18782;48.984;8.548;2024-02-21T02:20:47;5.68;;;1.33;;
32297;SDS011;18782;48.984;8.548;2024-02-21T02:23:21;6.00;;;1.63;;
32297;SDS011;18782;48.984;8.548;2024-02-21T02:25:50;7.97;;;1.52;;
32297;SDS011;18782;48.984;8.548;2024-02-21T02:28:19;7.85;;;1.60;;
32297;SDS011;18782;48.984;8.548;2024-02-21T02:30:48;5.70;;;1.85;;
32297;SDS011;18782;48.984;8.548;2024-02-21T02:33:16;6.10;;;1.55;;
32297;SDS011;18782;48.984;8.548;2024-02-21T02:35:45;7.45;;;1.77;;
32297;SDS011;18782;48.984;8.548;2024-02-21T02:38:13;6.72;;;1.83;;
32297;SDS011;18782;48.984;8.548;2024-02-21T02:40:43;3.85;;;1.50;;
32297;SDS011;18782;48.984;8.548;2024-02-21T02:43:11;6.10;;;1.60;;
32297;SDS011;18782;48.984;8.548;2024-02-21T02:45:38;5.25;;;1.75;;
32297;SDS011;18782;48.984;8.548;2024-02-21T02:48:06;9.05;;;1.98;;
32297;SDS011;18782;48.984;8.548;2024-02-21T02:50:35;7.53;;;1.73;;
32297;SDS011;18782;48.984;8.548;2024-02-21T02:53:02;6.93;;;1.52;;
32297;SDS011;18782;48.984;8.548;2024-02-21T02:55:30;5.30;;;1.45;;
32297;SDS011;18782;48.984;8.548;2024-02-21T02:57:59;6.88;;;1.60;;
32297;SDS011;18782;48.984;8.548;2024-02-21T03:00:27;4.30;;;1.63;;
32297;SDS011;18782;48.984;8.548;2024-02-21T03:02:55;6.97;;;3.78;;
32297;SDS011;18782;48.984;8.548;2024-02-21T03:05:22;12.20;;;3.00;;
32297;SDS011;18782;48.984;8.548;2024-02-21T03:07:50;9.55;;;1.80;;
32297;SDS011;18782;48.984;8.548;2024-02-21T03:10:18;6.47;;;1.40;;
32297;SDS011;18782;48.984;8.548;2024-02-21T03:12:46;10.27;;;2.58;;
32297;SDS011;18782;48.984;8.548;2024-02-21T03:15:15;7.47;;;1.85;;
32297;SDS011;18782;48.984;8.548;2024-02-21T03:17:43;4.32;;;1.58;;
32297;SDS011;18782;48.984;8.548;2024-02-21T03:20:11;5.65;;;1.80;;
32297;SDS011;18782;48.984;8.548;2024-02-21T03:22:40;7.72;;;1.50;;
32297;SDS011;18782;48.984;8.548;2024-02-21T03:25:08;5.25;;;1.92;;
32297;SDS011;18782;48.984;8.548;2024-02-21T03:27:37;8.25;;;2.00;;
32297;SDS011;18782;48.984;8.548;2024-02-21T03:30:05;7.00;;;2.10;;
32297;SDS011;18782;48.984;8.548;2024-02-21T03:32:34;6.55;;;2.60;;
32297;SDS011;18782;48.984;8.548;2024-02-21T03:35:02;10.57;;;3.13;;
32297;SDS011;18782;48.984;8.548;2024-02-21T03:37:31;8.82;;;2.72;;
32297;SDS011;18782;48.984;8.548;2024-02-21T03:39:58;6.43;;;1.95;;
32297;SDS011;18782;48.984;8.548;2024-02-21T03:42:26;8.10;;;1.90;;
32297;SDS011;18782;48.984;8.548;2024-02-21T03:44:55;7.78;;;1.90;;
32297;SDS011;18782;48.984;8.548;2024-02-21T03:47:23;7.80;;;1.90;;
32297;SDS011;18782;48.984;8.548;2024-02-21T03:49:52;7.32;;;1.52;;
32297;SDS011;18782;48.984;8.548;2024-02-21T03:52:20;7.28;;;2.42;;
32297;SDS011;18782;48.984;8.548;2024-02-21T03:54:48;11.38;;;2.13;;
32297;SDS011;18782;48.984;8.548;2024-02-21T03:57:15;5.55;;;1.88;;
32297;SDS011;18782;48.984;8.548;2024-02-21T03:59:43;5.75;;;2.25;;
32297;SDS011;18782;48.984;8.548;2024-02-21T04:02:11;10.40;;;2.90;;
32297;SDS011;18782;48.984;8.548;2024-02-21T04:04:42;9.70;;;2.53;;
32297;SDS011;18782;48.984;8.548;2024-02-21T04:07:14;6.15;;;1.83;;
32297;SDS011;18782;48.984;8.548;2024-02-21T04:09:42;8.05;;;1.75;;
32297;SDS011;18782;48.984;8.548;2024-02-21T04:12:09;6.63;;;2.13;;
32297;SDS011;18782;48.984;8.548;2024-02-21T04:14:37;7.18;;;1.98;;
32297;SDS011;18782;48.984;8.548;2024-02-21T04:17:08;9.27;;;2.35;;
32297;SDS011;18782;48.984;8.548;2024-02-21T04:19:35;7.95;;;2.13;;
32297;SDS011;18782;48.984;8.548;2024-02-21T04:22:03;6.55;;;2.20;;
32297;SDS011;18782;48.984;8.548;2024-02-21T04:24:32;6.82;;;2.15;;
32297;SDS011;18782;48.984;8.548;2024-02-21T04:27:00;9.40;;;2.45;;
32297;SDS011;18782;48.984;8.548;2024-02-21T04:29:27;6.72;;;2.20;;
32297;SDS011;18782;48.984;8.548;2024-02-21T04:31:55;9.73;;;2.22;;
32297;SDS011;18782;48.984;8.548;2024-02-21T04:34:23;5.07;;;1.80;;
32297;SDS011;18782;48.984;8.548;2024-02-21T04:36:51;10.57;;;2.35;;
32297;SDS011;18782;48.984;8.548;2024-02-21T04:39:18;7.60;;;2.45;;
32297;SDS011;18782;48.984;8.548;2024-02-21T04:41:47;5.90;;;2.30;;
32297;SDS011;18782;48.984;8.548;2024-02-21T04:44:15;7.05;;;1.95;;
32297;SDS011;18782;48.984;8.548;2024-02-21T04:46:43;7.32;;;2.28;;
32297;SDS011;18782;48.984;8.548;2024-02-21T04:49:10;63.03;;;20.65;;
32297;SDS011;18782;48.984;8.548;2024-02-21T04:51:39;44.40;;;14.57;;
32297;SDS011;18782;48.984;8.548;2024-02-21T04:54:08;18.85;;;6.40;;
32297;SDS011;18782;48.984;8.548;2024-02-21T04:56:36;9.75;;;3.72;;
32297;SDS011;18782;48.984;8.548;2024-02-21T04:59:05;10.25;;;3.50;;
32297;SDS011;18782;48.984;8.548;2024-02-21T05:01:32;11.65;;;2.85;;
32297;SDS011;18782;48.984;8.548;2024-02-21T05:04:00;5.55;;;1.95;;
32297;SDS011;18782;48.984;8.548;2024-02-21T05:06:28;6.32;;;1.70;;
32297;SDS011;18782;48.984;8.548;2024-02-21T05:08:56;9.15;;;1.88;;
32297;SDS011;18782;48.984;8.548;2024-02-21T05:11:24;6.78;;;1.75;;
32297;SDS011;18782;48.984;8.548;2024-02-21T05:13:52;7.40;;;2.00;;
32297;SDS011;18782;48.984;8.548;2024-02-21T05:16:21;4.22;;;1.63;;
32297;SDS011;18782;48.984;8.548;2024-02-21T05:18:49;4.07;;;1.60;;
32297;SDS011;18782;48.984;8.548;2024-02-21T05:21:17;9.38;;;2.45;;
32297;SDS011;18782;48.984;8.548;2024-02-21T05:23:45;11.73;;;4.00;;
32297;SDS011;18782;48.984;8.548;2024-02-21T05:26:19;11.93;;;3.80;;
32297;SDS011;18782;48.984;8.548;2024-02-21T05:28:47;17.70;;;6.90;;
32297;SDS011;18782;48.984;8.548;2024-02-21T05:31:16;10.70;;;5.43;;
32297;SDS011;18782;48.984;8.548;2024-02-21T05:33:45;10.05;;;5.25;;
32297;SDS011;18782;48.984;8.548;2024-02-21T05:36:13;10.13;;;4.68;;
32297;SDS011;18782;48.984;8.548;2024-02-21T05:38:41;9.57;;;4.82;;
32297;SDS011;18782;48.984;8.548;2024-02-21T05:41:09;7.35;;;3.33;;
32297;SDS011;18782;48.984;8.548;2024-02-21T05:43:38;8.50;;;3.20;;
32297;SDS011;18782;48.984;8.548;2024-02-21T05:46:06;10.30;;;2.70;;
32297;SDS011;18782;48.984;8.548;2024-02-21T05:48:33;5.05;;;1.83;;
32297;SDS011;18782;48.984;8.548;2024-02-21T05:51:06;4.93;;;1.60;;
32297;SDS011;18782;48.984;8.548;2024-02-21T05:53:34;6.05;;;1.52;;
32297;SDS011;18782;48.984;8.548;2024-02-21T05:56:02;4.97;;;1.90;;
32297;SDS011;18782;48.984;8.548;2024-02-21T05:58:31;5.40;;;2.25;;
32297;SDS011;18782;48.984;8.548;2024-02-21T06:00:59;7.90;;;2.42;;
32297;SDS011;18782;48.984;8.548;2024-02-21T06:03:28;8.23;;;3.08;;
32297;SDS011;18782;48.984;8.548;2024-02-21T06:05:56;7.00;;;3.03;;
32297;SDS011;18782;48.984;8.548;2024-02-21T06:08:25;7.60;;;2.60;;
32297;SDS011;18782;48.984;8.548;2024-02-21T06:10:54;9.43;;;1.95;;
32297;SDS011;18782;48.984;8.548;2024-02-21T06:13:23;5.68;;;2.35;;
32297;SDS011;18782;48.984;8.548;2024-02-21T06:15:51;8.55;;;2.63;;
32297;SDS011;18782;48.984;8.548;2024-02-21T06:18:18;11.27;;;2.30;;
32297;SDS011;18782;48.984;8.548;2024-02-21T06:20:47;5.25;;;1.95;;
32297;SDS011;18782;48.984;8.548;2024-02-21T06:23:15;5.93;;;2.35;;
32297;SDS011;18782;48.984;8.548;2024-02-21T06:25:45;7.50;;;2.60;;
32297;SDS011;18782;48.984;8.548;2024-02-21T06:28:14;8.85;;;2.22;;
32297;SDS011;18782;48.984;8.548;2024-02-21T06:30:41;10.07;;;2.80;;
32297;SDS011;18782;48.984;8.548;2024-02-21T06:33:09;13.98;;;6.35;;
32297;SDS011;18782;48.984;8.548;2024-02-21T06:35:37;13.25;;;3.58;;
32297;SDS011;18782;48.984;8.548;2024-02-21T06:38:07;7.97;;;2.78;;
32297;SDS011;18782;48.984;8.548;2024-02-21T06:40:35;9.20;;;2.58;;
32297;SDS011;18782;48.984;8.548;2024-02-21T06:43:07;4.75;;;2.47;;
32297;SDS011;18782;48.984;8.548;2024-02-21T06:45:34;7.00;;;1.95;;
32297;SDS011;18782;48.984;8.548;2024-02-21T06:48:02;7.22;;;2.30;;
32297;SDS011;18782;48.984;8.548;2024-02-21T06:50:30;8.48;;;3.53;;
32297;SDS011;18782;48.984;8.548;2024-02-21T06:52:58;10.50;;;3.05;;
32297;SDS011;18782;48.984;8.548;2024-02-21T06:55:26;6.68;;;2.70;;
32297;SDS011;18782;48.984;8.548;2024-02-21T06:57:53;9.82;;;3.90;;
32297;SDS011;18782;48.984;8.548;2024-02-21T07:00:23;7.15;;;3.30;;
32297;SDS011;18782;48.984;8.548;2024-02-21T07:02:52;10.02;;;3.10;;
32297;SDS011;18782;48.984;8.548;2024-02-21T07:05:19;9.50;;;3.17;;
32297;SDS011;18782;48.984;8.548;2024-02-21T07:07:47;9.30;;;2.80;;
32297;SDS011;18782;48.984;8.548;2024-02-21T07:10:15;11.70;;;3.67;;
32297;SDS011;18782;48.984;8.548;2024-02-21T07:12:42;10.30;;;2.85;;
32297;SDS011;18782;48.984;8.548;2024-02-21T07:15:10;8.45;;;2.60;;
32297;SDS011;18782;48.984;8.548;2024-02-21T07:17:39;6.97;;;2.65;;
32297;SDS011;18782;48.984;8.548;2024-02-21T07:20:07;21.30;;;10.60;;
32297;SDS011;18782;48.984;8.548;2024-02-21T07:22:35;8.90;;;4.82;;
32297;SDS011;18782;48.984;8.548;2024-02-21T07:25:03;9.50;;;4.95;;
32297;SDS011;18782;48.984;8.548;2024-02-21T07:27:32;7.60;;;3.90;;
32297;SDS011;18782;48.984;8.548;2024-02-21T07:30:00;12.95;;;3.55;;
32297;SDS011;18782;48.984;8.548;2024-02-21T07:32:27;9.65;;;3.30;;
32297;SDS011;18782;48.984;8.548;2024-02-21T07:34:56;8.00;;;3.20;;
32297;SDS011;18782;48.984;8.548;2024-02-21T07:40:14;9.30;;;3.30;;
32297;SDS011;18782;48.984;8.548;2024-02-21T07:42:42;10.60;;;3.92;;
32297;SDS011;18782;48.984;8.548;2024-02-21T07:45:16;8.52;;;3.55;;
32297;SDS011;18782;48.984;8.548;2024-02-21T07:47:44;10.05;;;4.10;;
32297;SDS011;18782;48.984;8.548;2024-02-21T07:50:13;6.35;;;3.17;;
32297;SDS011;18782;48.984;8.548;2024-02-21T07:52:41;9.55;;;3.95;;
32297;SDS011;18782;48.984;8.548;2024-02-21T07:55:09;13.52;;;4.30;;
32297;SDS011;18782;48.984;8.548;2024-02-21T07:57:37;9.55;;;4.18;;
32297;SDS011;18782;48.984;8.548;2024-02-21T08:00:05;9.38;;;4.28;;
32297;SDS011;18782;48.984;8.548;2024-02-21T08:02:38;10.60;;;4.22;;
32297;SDS011;18782;48.984;8.548;2024-02-21T08:05:06;12.15;;;4.88;;
32297;SDS011;18782;48.984;8.548;2024-02-21T08:07:36;9.75;;;4.35;;
32297;SDS011;18782;48.984;8.548;2024-02-21T08:10:04;8.88;;;4.32;;
32297;SDS011;18782;48.984;8.548;2024-02-21T08:12:33;7.43;;;3.45;;
32297;SDS011;18782;48.984;8.548;2024-02-21T08:15:01;8.10;;;3.50;;
32297;SDS011;18782;48.984;8.548;2024-02-21T08:17:30;8.25;;;3.38;;
32297;SDS011;18782;48.984;8.548;2024-02-21T08:19:59;9.00;;;3.63;;
32297;SDS011;18782;48.984;8.548;2024-02-21T08:22:27;8.35;;;3.33;;
32297;SDS011;18782;48.984;8.548;2024-02-21T08:24:56;11.30;;;3.42;;
32297;SDS011;18782;48.984;8.548;2024-02-21T08:27:24;8.48;;;3.72;;
32297;SDS011;18782;48.984;8.548;2024-02-21T08:29:51;8.32;;;3.28;;
32297;SDS011;18782;48.984;8.548;2024-02-21T08:32:19;9.18;;;3.60;;
32297;SDS011;18782;48.984;8.548;2024-02-21T08:34:46;5.38;;;2.78;;
32297;SDS011;18782;48.984;8.548;2024-02-21T08:37:14;6.72;;;3.13;;
32297;SDS011;18782;48.984;8.548;2024-02-21T08:39:42;5.93;;;3.08;;
32297;SDS011;18782;48.984;8.548;2024-02-21T08:42:11;7.75;;;3.55;;
32297;SDS011;18782;48.984;8.548;2024-02-21T08:44:39;7.63;;;2.88;;
32297;SDS011;18782;48.984;8.548;2024-02-21T08:47:07;6.20;;;2.90;;
32297;SDS011;18782;48.984;8.548;2024-02-21T08:49:37;6.53;;;2.88;;
32297;SDS011;18782;48.984;8.548;2024-02-21T08:52:05;8.57;;;2.70;;
32297;SDS011;18782;48.984;8.548;2024-02-21T08:54:33;7.57;;;3.70;;
32297;SDS011;18782;48.984;8.548;2024-02-21T08:57:01;8.63;;;4.07;;
32297;SDS011;18782;48.984;8.548;2024-02-21T08:59:31;6.30;;;3.60;;
32297;SDS011;18782;48.984;8.548;2024-02-21T09:01:58;10.68;;;4.60;;
32297;SDS011;18782;48.984;8.548;2024-02-21T09:04:26;6.65;;;3.75;;
32297;SDS011;18782;48.984;8.548;2024-02-21T09:06:54;6.82;;;3.00;;
32297;SDS011;18782;48.984;8.548;2024-02-21T09:09:22;8.48;;;3.63;;
32297;SDS011;18782;48.984;8.548;2024-02-21T09:11:53;6.93;;;2.80;;
32297;SDS011;18782;48.984;8.548;2024-02-21T09:14:21;6.40;;;2.72;;
32297;SDS011;18782;48.984;8.548;2024-02-21T09:16:50;6.15;;;3.33;;
32297;SDS011;18782;48.984;8.548;2024-02-21T09:19:17;10.27;;;3.40;;
32297;SDS011;18782;48.984;8.548;2024-02-21T09:21:45;6.78;;;2.50;;
32297;SDS011;18782;48.984;8.548;2024-02-21T09:24:13;6.03;;;2.80;;
32297;SDS011;18782;48.984;8.548;2024-02-21T09:26:40;5.68;;;2.80;;
32297;SDS011;18782;48.984;8.548;2024-02-21T09:29:08;6.30;;;2.38;;
32297;SDS011;18782;48.984;8.548;2024-02-21T09:31:36;5.15;;;1.70;;
32297;SDS011;18782;48.984;8.548;2024-02-21T09:34:06;6.10;;;1.90;;
32297;SDS011;18782;48.984;8.548;2024-02-21T09:36:34;4.57;;;1.65;;
32297;SDS011;18782;48.984;8.548;2024-02-21T09:39:02;9.57;;;2.20;;
32297;SDS011;18782;48.984;8.548;2024-02-21T09:41:29;5.90;;;1.75;;
32297;SDS011;18782;48.984;8.548;2024-02-21T09:43:57;7.28;;;1.65;;
32297;SDS011;18782;48.984;8.548;2024-02-21T09:46:28;4.55;;;1.42;;
32297;SDS011;18782;48.984;8.548;2024-02-21T09:49:13;5.30;;;1.73;;
32297;SDS011;18782;48.984;8.548;2024-02-21T09:51:49;5.38;;;1.70;;
32297;SDS011;18782;48.984;8.548;2024-02-21T09:54:19;4.95;;;1.38;;
32297;SDS011;18782;48.984;8.548;2024-02-21T09:56:47;7.30;;;1.65;;
32297;SDS011;18782;48.984;8.548;2024-02-21T09:59:15;5.25;;;1.42;;
32297;SDS011;18782;48.984;8.548;2024-02-21T10:01:44;6.07;;;2.28;;
32297;SDS011;18782;48.984;8.548;2024-02-21T10:04:14;6.95;;;2.35;;
32297;SDS011;18782;48.984;8.548;2024-02-21T10:06:42;10.02;;;3.75;;
32297;SDS011;18782;48.984;8.548;2024-02-21T10:09:19;6.10;;;2.33;;
32297;SDS011;18782;48.984;8.548;2024-02-21T10:11:48;7.75;;;1.95;;
32297;SDS011;18782;48.984;8.548;2024-02-21T10:14:16;6.90;;;2.10;;
32297;SDS011;18782;48.984;8.548;2024-02-21T10:16:45;5.82;;;2.00;;
32297;SDS011;18782;48.984;8.548;2024-02-21T10:19:18;6.30;;;1.65;;
32297;SDS011;18782;48.984;8.548;2024-02-21T10:21:59;5.90;;;1.48;;
32297;SDS011;18782;48.984;8.548;2024-02-21T10:24:29;5.40;;;1.65;;
32297;SDS011;18782;48.984;8.548;2024-02-21T10:26:59;4.40;;;1.48;;
32297;SDS011;18782;48.984;8.548;2024-02-21T10:29:30;5.32;;;1.40;;
32297;SDS011;18782;48.984;8.548;2024-02-21T10:32:05;4.72;;;1.50;;
32297;SDS011;18782;48.984;8.548;2024-02-21T10:34:35;5.07;;;1.40;;
32297;SDS011;18782;48.984;8.548;2024-02-21T10:37:04;6.82;;;1.30;;
32297;SDS011;18782;48.984;8.548;2024-02-21T10:39:33;5.93;;;1.60;;
32297;SDS011;18782;48.984;8.548;2024-02-21T10:42:02;8.25;;;1.90;;
32297;SDS011;18782;48.984;8.548;2024-02-21T10:44:32;9.10;;;1.50;;
32297;SDS011;18782;48.984;8.548;2024-02-21T10:47:04;4.35;;;1.33;;
32297;SDS011;18782;48.984;8.548;2024-02-21T10:49:38;6.85;;;1.98;;
32297;SDS011;18782;48.984;8.548;2024-02-21T10:52:09;7.82;;;1.33;;
32297;SDS011;18782;48.984;8.548;2024-02-21T10:54:44;3.95;;;1.27;;
32297;SDS011;18782;48.984;8.548;2024-02-21T10:57:13;5.32;;;1.10;;
32297;SDS011;18782;48.984;8.548;2024-02-21T10:59:41;4.68;;;1.20;;
32297;SDS011;18782;48.984;8.548;2024-02-21T11:02:11;5.43;;;1.20;;
32297;SDS011;18782;48.984;8.548;2024-02-21T11:04:41;4.32;;;1.20;;
32297;SDS011;18782;48.984;8.548;2024-02-21T11:07:10;6.28;;;1.60;;
32297;SDS011;18782;48.984;8.548;2024-02-21T11:09:38;6.90;;;1.63;;
32297;SDS011;18782;48.984;8.548;2024-02-21T11:12:06;5.85;;;1.52;;
32297;SDS011;18782;48.984;8.548;2024-02-21T11:14:37;3.45;;;1.20;;
32297;SDS011;18782;48.984;8.548;2024-02-21T11:17:14;7.00;;;1.13;;
32297;SDS011;18782;48.984;8.548;2024-02-21T11:19:43;5.13;;;1.05;;
32297;SDS011;18782;48.984;8.548;2024-02-21T11:22:15;6.53;;;1.50;;
32297;SDS011;18782;48.984;8.548;2024-02-21T11:24:44;6.78;;;1.23;;
32297;SDS011;18782;48.984;8.548;2024-02-21T11:27:12;5.65;;;1.75;;
32297;SDS011;18782;48.984;8.548;2024-02-21T11:29:42;7.35;;;1.80;;
32297;SDS011;18782;48.984;8.548;2024-02-21T11:32:10;6.15;;;1.40;;
32297;SDS011;18782;48.984;8.548;2024-02-21T11:34:38;4.32;;;1.42;;
32297;SDS011;18782;48.984;8.548;2024-02-21T11:37:14;5.25;;;1.50;;
32297;SDS011;18782;48.984;8.548;2024-02-21T11:39:43;4.65;;;1.40;;
32297;SDS011;18782;48.984;8.548;2024-02-21T11:42:11;7.38;;;2.50;;
32297;SDS011;18782;48.984;8.548;2024-02-21T11:44:39;5.22;;;1.20;;
32297;SDS011;18782;48.984;8.548;2024-02-21T11:47:09;5.07;;;1.27;;
32297;SDS011;18782;48.984;8.548;2024-02-21T11:49:37;4.65;;;1.52;;
32297;SDS011;18782;48.984;8.548;2024-02-21T11:52:06;5.30;;;1.20;;
32297;SDS011;18782;48.984;8.548;2024-02-21T11:54:35;5.38;;;1.60;;
32297;SDS011;18782;48.984;8.548;2024-02-21T11:57:03;4.68;;;1.13;;
32297;SDS011;18782;48.984;8.548;2024-02-21T11:59:31;4.75;;;1.00;;
32297;SDS011;18782;48.984;8.548;2024-02-21T12:01:59;4.22;;;1.02;;
32297;SDS011;18782;48.984;8.548;2024-02-21T12:04:29;7.18;;;1.33;;
32297;SDS011;18782;48.984;8.548;2024-02-21T12:06:58;4.10;;;1.10;;
32297;SDS011;18782;48.984;8.548;2024-02-21T12:09:26;4.50;;;0.85;;
32297;SDS011;18782;48.984;8.548;2024-02-21T12:11:58;1.65;;;0.70;;
32297;SDS011;18782;48.984;8.548;2024-02-21T12:14:27;4.68;;;1.20;;
32297;SDS011;18782;48.984;8.548;2024-02-21T12:16:56;5.43;;;1.00;;
32297;SDS011;18782;48.984;8.548;2024-02-21T12:19:24;3.75;;;1.02;;
32297;SDS011;18782;48.984;8.548;2024-02-21T12:21:53;4.18;;;0.90;;
32297;SDS011;18782;48.984;8.548;2024-02-21T12:24:23;5.13;;;1.05;;
32297;SDS011;18782;48.984;8.548;2024-02-21T12:26:52;5.45;;;1.00;;
32297;SDS011;18782;48.984;8.548;2024-02-21T12:29:22;6.10;;;1.30;;
32297;SDS011;18782;48.984;8.548;2024-02-21T12:31:51;4.18;;;0.98;;
32297;SDS011;18782;48.984;8.548;2024-02-21T12:34:20;4.95;;;1.35;;
32297;SDS011;18782;48.984;8.548;2024-02-21T12:37:04;7.57;;;2.08;;
32297;SDS011;18782;48.984;8.548;2024-02-21T12:39:31;3.55;;;0.90;;
32297;SDS011;18782;48.984;8.548;2024-02-21T12:41:59;3.72;;;0.98;;
32297;SDS011;18782;48.984;8.548;2024-02-21T12:44:28;3.30;;;0.90;;
32297;SDS011;18782;48.984;8.548;2024-02-21T12:46:56;5.95;;;0.98;;
32297;SDS011;18782;48.984;8.548;2024-02-21T12:49:23;4.78;;;1.17;;
32297;SDS011;18782;48.984;8.548;2024-02-21T12:51:54;4.05;;;1.00;;
32297;SDS011;18782;48.984;8.548;2024-02-21T12:54:22;8.10;;;3.38;;
32297;SDS011;18782;48.984;8.548;2024-02-21T12:56:50;3.63;;;1.23;;
32297;SDS011;18782;48.984;8.548;2024-02-21T12:59:17;3.85;;;1.10;;
32297;SDS011;18782;48.984;8.548;2024-02-21T13:01:46;3.78;;;0.90;;
32297;SDS011;18782;48.984;8.548;2024-02-21T13:04:14;4.57;;;1.02;;
32297;SDS011;18782;48.984;8.548;2024-02-21T13:06:42;3.58;;;0.60;;
32297;SDS011;18782;48.984;8.548;2024-02-21T13:09:11;4.95;;;0.98;;
32297;SDS011;18782;48.984;8.548;2024-02-21T13:11:40;4.40;;;0.95;;
32297;SDS011;18782;48.984;8.548;2024-02-21T13:14:08;4.63;;;0.90;;
32297;SDS011;18782;48.984;8.548;2024-02-21T13:16:36;4.43;;;0.90;;
32297;SDS011;18782;48.984;8.548;2024-02-21T13:19:07;4.10;;;1.00;;
32297;SDS011;18782;48.984;8.548;2024-02-21T13:21:36;4.55;;;1.00;;
32297;SDS011;18782;48.984;8.548;2024-02-21T13:24:04;3.40;;;0.90;;
32297;SDS011;18782;48.984;8.548;2024-02-21T13:26:32;3.78;;;0.73;;
32297;SDS011;18782;48.984;8.548;2024-02-21T13:29:00;5.13;;;1.05;;
32297;SDS011;18782;48.984;8.548;2024-02-21T13:31:28;4.45;;;0.82;;
32297;SDS011;18782;48.984;8.548;2024-02-21T13:33:56;3.53;;;0.80;;
32297;SDS011;18782;48.984;8.548;2024-02-21T13:36:25;4.15;;;1.25;;
32297;SDS011;18782;48.984;8.548;2024-02-21T13:38:53;4.93;;;1.00;;
32297;SDS011;18782;48.984;8.548;2024-02-21T13:41:20;3.88;;;1.10;;
32297;SDS011;18782;48.984;8.548;2024-02-21T13:43:49;2.90;;;1.10;;
32297;SDS011;18782;48.984;8.548;2024-02-21T13:46:17;3.13;;;1.10;;
32297;SDS011;18782;48.984;8.548;2024-02-21T13:48:45;5.43;;;1.00;;
32297;SDS011;18782;48.984;8.548;2024-02-21T13:51:12;3.10;;;0.88;;
32297;SDS011;18782;48.984;8.548;2024-02-21T13:53:44;5.82;;;1.67;;
32297;SDS011;18782;48.984;8.548;2024-02-21T13:56:11;4.45;;;1.30;;
32297;SDS011;18782;48.984;8.548;2024-02-21T13:58:39;5.30;;;1.20;;
32297;SDS011;18782;48.984;8.548;2024-02-21T14:01:07;5.68;;;0.95;;
32297;SDS011;18782;48.984;8.548;2024-02-21T14:03:35;6.18;;;1.77;;
32297;SDS011;18782;48.984;8.548;2024-02-21T14:06:04;6.68;;;1.42;;
32297;SDS011;18782;48.984;8.548;2024-02-21T14:08:32;4.32;;;1.50;;
32297;SDS011;18782;48.984;8.548;2024-02-21T14:11:01;7.05;;;1.73;;
32297;SDS011;18782;48.984;8.548;2024-02-21T14:13:29;6.82;;;1.60;;
32297;SDS011;18782;48.984;8.548;2024-02-21T14:15:57;4.53;;;1.33;;
32297;SDS011;18782;48.984;8.548;2024-02-21T14:18:25;4.75;;;1.05;;
32297;SDS011;18782;48.984;8.548;2024-02-21T14:20:52;3.53;;;0.80;;
32297;SDS011;18782;48.984;8.548;2024-02-21T14:23:20;4.78;;;1.10;;
32297;SDS011;18782;48.984;8.548;2024-02-21T14:25:48;4.32;;;1.05;;
32297;SDS011;18782;48.984;8.548;2024-02-21T14:28:17;4.82;;;1.08;;
32297;SDS011;18782;48.984;8.548;2024-02-21T14:30:47;4.25;;;1.02;;
32297;SDS011;18782;48.984;8.548;2024-02-21T14:33:19;3.22;;;0.80;;
32297;SDS011;18782;48.984;8.548;2024-02-21T14:35:47;3.38;;;0.75;;
32297;SDS011;18782;48.984;8.548;2024-02-21T14:38:15;4.28;;;0.90;;
32297;SDS011;18782;48.984;8.548;2024-02-21T14:40:43;3.97;;;0.90;;
32297;SDS011;18782;48.984;8.548;2024-02-21T14:43:10;4.65;;;0.75;;
32297;SDS011;18782;48.984;8.548;2024-02-21T14:45:39;5.10;;;1.38;;
32297;SDS011;18782;48.984;8.548;2024-02-21T14:48:07;4.00;;;1.08;;
32297;SDS011;18782;48.984;8.548;2024-02-21T14:50:35;5.25;;;0.95;;
32297;SDS011;18782;48.984;8.548;2024-02-21T14:53:03;3.42;;;0.80;;
32297;SDS011;18782;48.984;8.548;2024-02-21T14:55:31;4.72;;;1.05;;
32297;SDS011;18782;48.984;8.548;2024-02-21T14:57:58;4.55;;;1.00;;